createdAt,value
2019-05-17T00:00:30.079Z,99.90
2019-05-17T00:03:00.485Z,99.90
2019-05-17T00:05:30.842Z,99.90
2019-05-17T00:08:01.226Z,99.90
2019-05-17T00:10:31.599Z,99.90
2019-05-17T00:13:02.130Z,99.90
2019-05-17T00:15:32.497Z,99.90
2019-05-17T00:18:02.932Z,99.90
2019-05-17T00:20:33.331Z,99.90
2019-05-17T00:23:03.806Z,99.90
2019-05-17T00:25:36.607Z,1.00
2019-05-17T00:28:07.263Z,99.90
2019-05-17T00:30:38.010Z,1.00
2019-05-17T00:33:08.491Z,1.00
2019-05-17T00:35:38.961Z,99.90
2019-05-17T00:38:09.357Z,99.90
2019-05-17T00:40:39.741Z,99.90
2019-05-17T00:43:10.126Z,1.00
2019-05-17T00:45:40.603Z,99.90
2019-05-17T00:48:10.968Z,99.90
2019-05-17T00:50:41.435Z,99.90
2019-05-17T00:53:11.862Z,1.00
2019-05-17T00:55:42.225Z,1.00
2019-05-17T00:58:12.606Z,99.90
2019-05-17T01:00:43.010Z,99.90
2019-05-17T01:03:13.375Z,99.90
2019-05-17T01:05:43.858Z,99.90
2019-05-17T01:08:14.226Z,99.90
2019-05-17T01:10:44.672Z,99.90
2019-05-17T01:13:17.134Z,99.90
2019-05-17T01:15:47.533Z,99.90
2019-05-17T01:18:17.973Z,99.90
2019-05-17T01:20:48.361Z,1.00
2019-05-17T01:23:18.743Z,1.00
2019-05-17T01:25:49.111Z,1.00
2019-05-17T01:28:19.461Z,1.00
2019-05-17T01:30:49.840Z,1.00
2019-05-17T01:33:20.195Z,1.00
2019-05-17T01:35:50.550Z,1.00
2019-05-17T01:38:21.031Z,1.00
2019-05-17T01:40:51.427Z,1.00
2019-05-17T01:43:21.767Z,1.00
2019-05-17T01:45:52.141Z,1.00
2019-05-17T01:48:22.523Z,1.00
2019-05-17T01:50:52.886Z,1.00
2019-05-17T01:53:23.300Z,1.00
2019-05-17T01:55:53.677Z,1.00
2019-05-17T01:58:24.154Z,1.00
2019-05-17T02:00:57.143Z,1.00
2019-05-17T02:03:26.939Z,1.00
2019-05-17T02:05:57.567Z,1.00
2019-05-17T02:08:28.102Z,1.00
2019-05-17T02:10:58.780Z,1.00
2019-05-17T02:13:29.340Z,1.00
2019-05-17T02:15:59.955Z,1.00
2019-05-17T02:18:30.596Z,1.00
2019-05-17T02:21:01.275Z,99.90
2019-05-17T02:23:31.801Z,99.90
2019-05-17T02:26:02.415Z,99.90
2019-05-17T02:28:32.994Z,99.90
2019-05-17T02:31:03.871Z,99.90
2019-05-17T02:33:34.599Z,1.00
2019-05-17T02:36:04.966Z,1.00
2019-05-17T02:38:35.327Z,1.00
2019-05-17T02:41:06.116Z,1.00
2019-05-17T02:43:36.470Z,1.00
2019-05-17T02:46:06.882Z,1.00
2019-05-17T02:48:37.239Z,1.00
2019-05-17T02:51:07.689Z,99.90
2019-05-17T02:53:38.068Z,99.90
2019-05-17T02:56:08.449Z,99.90
2019-05-17T02:58:38.834Z,99.90
2019-05-17T03:01:12.436Z,1.00
2019-05-17T03:03:43.699Z,1.00
2019-05-17T03:06:13.785Z,1.00
2019-05-17T03:08:44.279Z,99.90
2019-05-17T03:11:14.679Z,99.90
2019-05-17T03:13:45.056Z,1.00
2019-05-17T03:16:15.537Z,1.00
2019-05-17T03:18:45.881Z,1.00
2019-05-17T03:21:16.279Z,1.00
2019-05-17T03:23:46.711Z,1.00
2019-05-17T03:26:17.208Z,1.00
2019-05-17T03:28:47.586Z,1.00
2019-05-17T03:31:18.273Z,1.00
2019-05-17T03:33:48.879Z,1.00
2019-05-17T03:36:25.534Z,1.00
2019-05-17T03:38:53.389Z,1.00
2019-05-17T03:41:28.982Z,1.00
2019-05-17T03:43:56.097Z,1.00
2019-05-17T03:46:26.590Z,1.00
2019-05-17T03:48:56.969Z,1.00
2019-05-17T03:51:27.363Z,1.00
2019-05-17T03:53:57.738Z,1.00
2019-05-17T03:56:28.131Z,1.00
2019-05-17T03:59:03.804Z,1.00
2019-05-17T04:01:32.924Z,1.00
2019-05-17T04:04:03.482Z,1.00
2019-05-17T04:06:33.883Z,1.00
2019-05-17T04:09:05.432Z,1.00
2019-05-17T04:11:36.697Z,1.00
2019-05-17T04:14:07.251Z,1.00
2019-05-17T04:16:37.682Z,1.00
2019-05-17T04:19:08.071Z,1.00
2019-05-17T04:21:38.427Z,1.00
2019-05-17T04:24:08.798Z,1.00
2019-05-17T04:26:39.151Z,1.00
2019-05-17T04:29:09.558Z,1.00
2019-05-17T04:31:43.130Z,1.00
2019-05-17T04:34:13.447Z,1.00
2019-05-17T04:36:44.211Z,1.00
2019-05-17T04:39:14.595Z,1.00
2019-05-17T04:41:49.900Z,1.00
2019-05-17T04:44:17.152Z,1.00
2019-05-17T04:46:47.568Z,1.00
2019-05-17T04:49:17.992Z,1.00
2019-05-17T04:51:48.355Z,1.00
2019-05-17T04:54:18.721Z,1.00
2019-05-17T04:56:49.089Z,1.00
2019-05-17T04:59:19.537Z,1.00
2019-05-17T05:01:49.903Z,1.00
2019-05-17T05:04:22.769Z,1.00
2019-05-17T05:06:53.172Z,1.00
2019-05-17T05:09:23.656Z,1.00
2019-05-17T05:12:01.156Z,1.00
2019-05-17T05:14:26.123Z,1.00
2019-05-17T05:16:56.488Z,1.00
2019-05-17T05:19:26.896Z,1.00
2019-05-17T05:21:57.338Z,1.00
2019-05-17T05:24:27.785Z,1.00
2019-05-17T05:26:58.144Z,1.00
2019-05-17T05:29:28.525Z,1.00
2019-05-17T05:31:58.900Z,1.00
2019-05-17T05:34:29.298Z,1.00
2019-05-17T05:37:01.949Z,1.00
2019-05-17T05:39:32.197Z,1.00
2019-05-17T05:42:07.858Z,1.00
2019-05-17T05:44:34.708Z,1.00
2019-05-17T05:47:05.088Z,1.00
2019-05-17T05:49:35.469Z,1.00
2019-05-17T05:52:06.155Z,1.00
2019-05-17T05:54:36.529Z,1.00
2019-05-17T05:57:06.986Z,1.00
2019-05-17T05:59:37.371Z,1.00
2019-05-17T06:02:07.745Z,1.00
2019-05-17T06:04:38.103Z,1.00
2019-05-17T06:07:08.491Z,1.00
2019-05-17T06:09:38.890Z,1.00
2019-05-17T06:12:22.716Z,1.00
2019-05-17T06:14:41.689Z,1.00
2019-05-17T06:17:12.698Z,1.00
2019-05-17T06:19:43.184Z,1.00
2019-05-17T06:22:13.576Z,1.00
2019-05-17T06:24:43.967Z,99.90
2019-05-17T06:27:14.371Z,99.90
2019-05-17T06:29:44.746Z,1.00
2019-05-17T06:32:15.154Z,1.00
2019-05-17T06:34:45.533Z,1.00
2019-05-17T06:37:16.676Z,99.90
2019-05-17T06:39:47.186Z,99.90
2019-05-17T06:42:17.610Z,1.00
2019-05-17T06:44:47.980Z,56.40
2019-05-17T06:47:18.575Z,99.90
2019-05-17T06:49:50.574Z,1.00
2019-05-17T06:52:22.621Z,99.90
2019-05-17T06:54:53.169Z,99.90
2019-05-17T06:57:23.541Z,1.00
2019-05-17T06:59:53.914Z,99.90
2019-05-17T07:02:24.310Z,1.00
2019-05-17T07:04:56.252Z,12.80
2019-05-17T07:07:26.778Z,1.00
2019-05-17T07:10:00.572Z,99.90
2019-05-17T07:12:31.436Z,1.00
2019-05-17T07:15:02.200Z,1.00
2019-05-17T07:17:32.669Z,1.00
2019-05-17T07:20:03.035Z,1.00
2019-05-17T07:22:33.426Z,99.90
2019-05-17T07:25:03.941Z,1.00
2019-05-17T07:27:41.524Z,1.00
2019-05-17T07:30:07.064Z,99.90
2019-05-17T07:32:37.451Z,99.90
2019-05-17T07:35:10.675Z,99.90
2019-05-17T07:37:40.633Z,99.90
2019-05-17T07:40:11.300Z,99.90
2019-05-17T07:42:41.690Z,99.90
2019-05-17T07:45:12.188Z,30.00
2019-05-17T07:47:42.585Z,1.00
2019-05-17T07:50:13.245Z,95.50
2019-05-17T07:52:43.667Z,84.20
2019-05-17T07:55:14.062Z,99.90
2019-05-17T07:57:44.466Z,99.90
2019-05-17T08:00:15.181Z,75.20
2019-05-17T08:02:45.621Z,56.60
2019-05-17T08:05:16.690Z,1.00
2019-05-17T08:07:47.079Z,1.00
2019-05-17T08:10:20.190Z,1.00
2019-05-17T08:12:49.923Z,1.00
2019-05-17T08:15:20.597Z,1.00
2019-05-17T08:17:51.038Z,1.00
2019-05-17T08:20:21.534Z,1.00
2019-05-17T08:22:51.907Z,1.00
2019-05-17T08:25:22.383Z,1.00
2019-05-17T08:27:52.821Z,1.00
2019-05-17T08:30:23.518Z,99.90
2019-05-17T08:32:53.890Z,99.90
2019-05-17T08:35:24.343Z,99.90
2019-05-17T08:37:54.770Z,99.90
2019-05-17T08:40:25.161Z,99.90
2019-05-17T08:42:55.526Z,99.90
2019-05-17T08:45:25.937Z,99.90
2019-05-17T08:47:56.342Z,99.90
2019-05-17T08:50:29.271Z,99.90
2019-05-17T08:52:59.937Z,99.90
2019-05-17T08:55:30.451Z,99.90
2019-05-17T08:58:01.161Z,99.90
2019-05-17T09:00:31.771Z,99.90
2019-05-17T09:03:02.490Z,99.90
2019-05-17T09:05:32.954Z,99.90
2019-05-17T09:08:03.302Z,99.90
2019-05-17T09:10:33.785Z,99.90
2019-05-17T09:13:04.137Z,99.90
2019-05-17T09:15:34.538Z,99.90
2019-05-17T09:18:04.886Z,99.90
2019-05-17T09:20:35.354Z,99.90
2019-05-17T09:23:05.709Z,99.90
2019-05-17T09:25:36.091Z,99.90
2019-05-17T09:28:06.450Z,99.90
2019-05-17T09:30:36.923Z,99.90
2019-05-17T09:33:07.302Z,99.90
2019-05-17T09:35:37.709Z,99.90
2019-05-17T09:38:10.147Z,99.90
2019-05-17T09:40:40.524Z,99.90
2019-05-17T09:43:11.101Z,99.90
2019-05-17T09:45:41.485Z,99.90
2019-05-17T09:48:11.851Z,99.90
2019-05-17T09:50:42.409Z,99.90
2019-05-17T09:53:12.775Z,99.90
2019-05-17T09:55:43.153Z,99.90
2019-05-17T09:58:13.517Z,99.90
2019-05-17T10:00:43.898Z,99.90
2019-05-17T10:03:14.258Z,99.90
2019-05-17T10:05:44.660Z,99.90
2019-05-17T10:08:15.013Z,99.90
2019-05-17T10:10:45.513Z,99.90
2019-05-17T10:13:20.229Z,99.90
2019-05-17T10:15:50.757Z,99.90
2019-05-17T10:18:21.186Z,99.90
2019-05-17T10:20:51.624Z,99.90
2019-05-17T10:23:21.998Z,99.90
2019-05-17T10:25:52.416Z,99.90
2019-05-17T10:28:22.797Z,99.90
2019-05-17T10:30:53.293Z,99.90
2019-05-17T10:33:26.138Z,99.90
2019-05-17T10:35:56.518Z,99.90
2019-05-17T10:38:27.065Z,99.90
2019-05-17T10:40:57.455Z,99.90
2019-05-17T10:43:29.843Z,99.90
2019-05-17T10:46:00.173Z,99.90
2019-05-17T10:48:30.510Z,99.90
2019-05-17T10:51:00.927Z,99.90
2019-05-17T10:53:31.287Z,99.90
2019-05-17T10:56:01.686Z,99.90
2019-05-17T10:58:32.098Z,99.90
2019-05-17T11:01:05.641Z,99.90
2019-05-17T11:03:36.001Z,99.90
2019-05-17T11:06:06.369Z,99.90
2019-05-17T11:08:36.725Z,99.90
2019-05-17T11:11:07.228Z,99.90
2019-05-17T11:13:37.587Z,99.90
2019-05-17T11:16:08.063Z,99.90
2019-05-17T11:18:38.434Z,99.90
2019-05-17T11:21:08.994Z,99.90
2019-05-17T11:23:39.363Z,99.90
2019-05-17T11:26:09.778Z,99.90
2019-05-17T11:28:40.146Z,99.90
2019-05-17T11:31:10.519Z,99.90
2019-05-17T11:33:40.914Z,99.90
2019-05-17T11:36:11.309Z,99.90
2019-05-17T11:38:41.691Z,99.90
2019-05-17T11:41:21.261Z,99.90
2019-05-17T11:43:44.245Z,99.90
2019-05-17T11:46:14.626Z,99.90
2019-05-17T11:48:45.073Z,99.90
2019-05-17T11:51:15.529Z,99.90
2019-05-17T11:53:45.912Z,99.90
2019-05-17T11:56:16.285Z,99.90
2019-05-17T11:58:46.654Z,99.90
2019-05-17T12:01:17.054Z,99.90
2019-05-17T12:03:47.427Z,99.90
2019-05-17T12:06:17.825Z,99.90
2019-05-17T12:08:48.202Z,99.90
2019-05-17T12:11:18.591Z,99.90
2019-05-17T12:13:48.974Z,99.90
2019-05-17T12:16:19.410Z,99.90
2019-05-17T12:18:49.780Z,99.90
2019-05-17T12:21:20.195Z,99.90
2019-05-17T12:23:50.553Z,99.90
2019-05-17T12:26:21.011Z,99.90
2019-05-17T12:28:51.381Z,99.90
2019-05-17T12:31:21.759Z,99.90
2019-05-17T12:33:52.121Z,99.90
2019-05-17T12:36:22.499Z,99.90
2019-05-17T12:38:52.889Z,99.90
2019-05-17T12:41:23.319Z,99.90
2019-05-17T12:43:53.893Z,99.90
2019-05-17T12:46:24.295Z,99.90
2019-05-17T12:48:54.653Z,99.90
2019-05-17T12:51:25.030Z,99.90
2019-05-17T12:53:55.414Z,99.90
2019-05-17T12:56:25.848Z,99.90
2019-05-17T12:58:56.237Z,99.90
2019-05-17T13:01:26.609Z,99.90
2019-05-17T13:03:57.095Z,99.90
2019-05-17T13:06:27.593Z,99.90
2019-05-17T13:08:57.922Z,99.90
2019-05-17T13:11:28.792Z,99.90
2019-05-17T13:13:59.154Z,99.90
2019-05-17T13:16:29.546Z,99.90
2019-05-17T13:18:59.912Z,99.90
2019-05-17T13:21:30.318Z,99.90
2019-05-17T13:24:00.673Z,99.90
2019-05-17T13:26:31.093Z,99.90
2019-05-17T13:29:01.659Z,99.90
2019-05-17T13:31:32.102Z,99.90
2019-05-17T13:34:02.504Z,99.90
2019-05-17T13:36:32.902Z,99.90
2019-05-17T13:39:04.023Z,99.90
2019-05-17T13:41:34.414Z,99.90
2019-05-17T13:44:07.286Z,99.90
2019-05-17T13:46:37.724Z,99.90
2019-05-17T13:49:08.105Z,99.90
2019-05-17T13:51:38.502Z,99.90
2019-05-17T13:54:08.850Z,99.90
2019-05-17T13:56:39.233Z,99.90
2019-05-17T13:59:09.577Z,99.90
2019-05-17T14:01:39.963Z,99.90
2019-05-17T14:04:10.321Z,99.90
2019-05-17T14:06:40.734Z,99.90
2019-05-17T14:09:11.179Z,99.90
2019-05-17T14:11:41.771Z,99.90
2019-05-17T14:14:12.136Z,99.90
2019-05-17T14:16:42.539Z,99.90
2019-05-17T14:19:12.904Z,99.90
2019-05-17T14:21:43.258Z,99.90
2019-05-17T14:24:13.667Z,99.90
2019-05-17T14:26:44.121Z,99.90
2019-05-17T14:29:14.559Z,99.90
2019-05-17T14:31:44.951Z,99.90
2019-05-17T14:34:15.345Z,99.90
2019-05-17T14:36:45.814Z,99.90
2019-05-17T14:39:16.208Z,99.90
2019-05-17T14:41:46.593Z,99.90
2019-05-17T14:44:16.996Z,99.90
2019-05-17T14:46:47.411Z,99.90
2019-05-17T14:49:17.806Z,99.90
2019-05-17T14:51:48.181Z,99.90
2019-05-17T14:54:18.673Z,99.90
2019-05-17T14:56:49.059Z,99.90
2019-05-17T14:59:20.499Z,99.90
2019-05-17T15:01:50.902Z,99.90
2019-05-17T15:04:21.655Z,99.90
2019-05-17T15:06:52.015Z,99.90
2019-05-17T15:09:22.442Z,99.90
2019-05-17T15:11:52.874Z,99.90
2019-05-17T15:14:23.256Z,99.90
2019-05-17T15:16:54.744Z,99.90
2019-05-17T15:19:25.192Z,1.00
2019-05-17T15:21:55.584Z,1.00
2019-05-17T15:24:26.007Z,1.00
2019-05-17T15:27:05.310Z,1.00
2019-05-17T15:29:28.533Z,99.90
2019-05-17T15:31:58.988Z,99.90
2019-05-17T15:34:29.473Z,1.00
2019-05-17T15:36:59.875Z,99.90
2019-05-17T15:39:30.327Z,99.90
2019-05-17T15:42:00.670Z,1.00
2019-05-17T15:44:31.117Z,1.00
2019-05-17T15:47:01.517Z,99.90
2019-05-17T15:49:31.907Z,99.90
2019-05-17T15:52:02.292Z,99.90
2019-05-17T15:54:32.698Z,99.90
2019-05-17T15:57:03.076Z,99.90
2019-05-17T15:59:33.555Z,1.00
2019-05-17T16:02:03.987Z,75.30
2019-05-17T16:04:34.525Z,1.00
2019-05-17T16:07:04.993Z,99.80
2019-05-17T16:09:35.441Z,99.90
2019-05-17T16:12:05.838Z,99.90
2019-05-17T16:14:36.217Z,1.00
2019-05-17T16:17:07.639Z,99.90
2019-05-17T16:19:38.121Z,1.00
2019-05-17T16:22:10.780Z,1.00
2019-05-17T16:24:43.447Z,1.00
2019-05-17T16:27:13.816Z,1.00
2019-05-17T16:29:44.181Z,1.00
2019-05-17T16:32:14.637Z,99.90
2019-05-17T16:34:45.035Z,1.00
2019-05-17T16:37:15.424Z,99.90
2019-05-17T16:39:45.897Z,18.80
2019-05-17T16:42:16.388Z,1.00
2019-05-17T16:44:46.858Z,99.90
2019-05-17T16:47:17.339Z,99.90
2019-05-17T16:49:47.746Z,1.00
2019-05-17T16:52:18.139Z,44.40
2019-05-17T16:54:48.592Z,1.00
2019-05-17T16:57:19.077Z,28.10
2019-05-17T16:59:49.530Z,1.00
2019-05-17T17:02:20.321Z,1.00
2019-05-17T17:04:50.742Z,1.00
2019-05-17T17:07:21.155Z,99.90
2019-05-17T17:09:51.574Z,1.00
2019-05-17T17:12:22.027Z,1.00
2019-05-17T17:14:52.466Z,1.00
2019-05-17T17:17:22.862Z,99.90
2019-05-17T17:19:53.272Z,99.90
2019-05-17T17:22:23.651Z,1.00
2019-05-17T17:24:54.040Z,1.00
2019-05-17T17:27:24.402Z,1.00
2019-05-17T17:29:54.837Z,99.90
2019-05-17T17:32:25.226Z,1.00
2019-05-17T17:34:55.663Z,1.00
2019-05-17T17:37:26.158Z,99.90
2019-05-17T17:39:56.558Z,99.90
2019-05-17T17:42:26.999Z,99.90
2019-05-17T17:44:57.492Z,99.90
2019-05-17T17:47:27.902Z,1.00
2019-05-17T17:49:58.291Z,1.00
2019-05-17T17:52:28.695Z,1.00
2019-05-17T17:54:59.071Z,1.00
2019-05-17T17:57:29.492Z,1.00
2019-05-17T17:59:59.897Z,1.00
2019-05-17T18:02:30.354Z,1.00
2019-05-17T18:05:03.182Z,1.00
2019-05-17T18:07:33.760Z,1.00
2019-05-17T18:10:04.452Z,1.00
2019-05-17T18:12:34.900Z,99.90
2019-05-17T18:15:07.711Z,99.90
2019-05-17T18:17:39.472Z,99.90
2019-05-17T18:20:10.253Z,99.90
2019-05-17T18:22:40.727Z,99.90
2019-05-17T18:25:11.237Z,99.90
2019-05-17T18:27:41.624Z,1.00
2019-05-17T18:30:12.322Z,1.00
2019-05-17T18:32:42.730Z,99.90
2019-05-17T18:35:13.223Z,99.90
2019-05-17T18:37:43.699Z,99.90
2019-05-17T18:40:14.409Z,1.00
2019-05-17T18:42:44.829Z,1.00
2019-05-17T18:45:15.359Z,99.90
2019-05-17T18:47:45.848Z,1.00
2019-05-17T18:50:17.077Z,99.90
2019-05-17T18:52:47.531Z,1.00
2019-05-17T18:55:18.102Z,7.50
2019-05-17T18:57:48.494Z,99.90
2019-05-17T19:00:19.253Z,99.90
2019-05-17T19:02:49.713Z,1.00
2019-05-17T19:05:20.350Z,99.90
2019-05-17T19:07:50.756Z,99.90
2019-05-17T19:10:21.627Z,1.00
2019-05-17T19:12:52.012Z,1.00
2019-05-17T19:15:23.624Z,1.00
2019-05-17T19:17:54.014Z,99.90
2019-05-17T19:20:24.448Z,99.90
2019-05-17T19:22:54.881Z,1.00
2019-05-17T19:25:25.298Z,1.00
2019-05-17T19:27:55.718Z,62.00
2019-05-17T19:30:26.152Z,99.90
2019-05-17T19:32:56.519Z,1.00
2019-05-17T19:35:27.107Z,1.00
2019-05-17T19:37:57.487Z,1.00
2019-05-17T19:40:27.924Z,1.00
2019-05-17T19:42:58.407Z,99.90
2019-05-17T19:45:28.831Z,99.90
2019-05-17T19:47:59.254Z,39.30
2019-05-17T19:50:29.701Z,99.90
2019-05-17T19:53:00.110Z,99.90
2019-05-17T19:55:33.251Z,99.90
2019-05-17T19:58:02.694Z,1.00
2019-05-17T20:00:33.109Z,99.90
2019-05-17T20:03:03.509Z,99.90
2019-05-17T20:05:34.118Z,94.30
2019-05-17T20:08:04.629Z,99.90
2019-05-17T20:10:35.106Z,87.40
2019-05-17T20:13:05.773Z,99.90
2019-05-17T20:15:36.214Z,99.90
2019-05-17T20:18:06.783Z,99.90
2019-05-17T20:20:37.271Z,99.90
2019-05-17T20:23:07.682Z,99.90
2019-05-17T20:25:38.177Z,99.90
2019-05-17T20:28:08.665Z,1.00
2019-05-17T20:30:39.270Z,1.00
2019-05-17T20:33:09.790Z,99.90
2019-05-17T20:35:40.398Z,1.00
2019-05-17T20:38:11.051Z,99.90
2019-05-17T20:40:41.654Z,1.00
2019-05-17T20:43:12.174Z,99.90
2019-05-17T20:45:42.691Z,99.90
2019-05-17T20:48:13.261Z,99.90
2019-05-17T20:50:43.886Z,1.00
2019-05-17T20:53:19.016Z,99.90
2019-05-17T20:55:46.667Z,1.00
2019-05-17T20:58:17.257Z,1.00
2019-05-17T21:00:47.938Z,1.00
2019-05-17T21:03:18.511Z,1.00
2019-05-17T21:05:49.199Z,1.00
2019-05-17T21:08:19.726Z,1.00
2019-05-17T21:10:50.373Z,67.40
2019-05-17T21:13:20.964Z,99.90
2019-05-17T21:15:51.532Z,99.90
2019-05-17T21:18:22.161Z,52.30
2019-05-17T21:20:52.768Z,99.90
2019-05-17T21:23:23.354Z,1.00
2019-05-17T21:25:54.001Z,99.90
2019-05-17T21:28:24.520Z,99.90
2019-05-17T21:30:55.088Z,1.00
2019-05-17T21:33:26.038Z,99.90
2019-05-17T21:35:56.655Z,1.00
2019-05-17T21:38:27.200Z,1.00
2019-05-17T21:40:57.789Z,98.50
2019-05-17T21:43:28.405Z,99.90
2019-05-17T21:46:04.092Z,10.70
2019-05-17T21:48:34.040Z,99.90
2019-05-17T21:51:04.618Z,1.00
2019-05-17T21:53:35.203Z,99.90
2019-05-17T21:56:05.877Z,99.90
2019-05-17T21:58:36.536Z,99.90
2019-05-17T22:01:18.229Z,99.90
2019-05-17T22:03:48.802Z,1.00
2019-05-17T22:06:19.453Z,1.00
2019-05-17T22:08:50.271Z,1.00
2019-05-17T22:11:20.747Z,99.90
2019-05-17T22:13:51.320Z,1.00
2019-05-17T22:16:21.882Z,1.00
2019-05-17T22:18:53.245Z,1.00
2019-05-17T22:21:23.813Z,1.00
2019-05-17T22:23:54.339Z,1.00
2019-05-17T22:26:24.941Z,1.00
2019-05-17T22:28:55.469Z,1.00
2019-05-17T22:31:25.973Z,1.00
2019-05-17T22:33:56.613Z,1.00
2019-05-17T22:36:27.180Z,1.00
2019-05-17T22:38:57.614Z,1.00
2019-05-17T22:41:28.051Z,1.00
2019-05-17T22:43:58.502Z,1.00
2019-05-17T22:46:35.914Z,1.00
2019-05-17T22:49:00.999Z,1.00
2019-05-17T22:51:31.478Z,1.00
2019-05-17T22:54:01.868Z,1.00
2019-05-17T22:56:32.349Z,1.00
2019-05-17T22:59:02.745Z,1.00
2019-05-17T23:01:33.223Z,1.00
2019-05-17T23:04:03.627Z,1.00
2019-05-17T23:06:34.037Z,1.00
2019-05-17T23:09:05.335Z,1.00
2019-05-17T23:11:35.755Z,1.00
2019-05-17T23:14:06.186Z,1.00
2019-05-17T23:16:50.446Z,1.00
2019-05-17T23:19:09.490Z,1.00
2019-05-17T23:21:40.117Z,1.00
2019-05-17T23:24:10.706Z,1.00
2019-05-17T23:26:41.224Z,1.00
2019-05-17T23:29:11.983Z,1.00
2019-05-17T23:31:42.718Z,1.00
2019-05-17T23:34:13.348Z,1.00
2019-05-17T23:36:43.932Z,1.00
2019-05-17T23:39:14.469Z,1.00
2019-05-17T23:41:44.951Z,1.00
2019-05-17T23:44:15.327Z,1.00
2019-05-17T23:46:45.716Z,1.00
2019-05-17T23:49:16.169Z,1.00
2019-05-17T23:51:46.534Z,1.00
2019-05-17T23:54:17.015Z,1.00
2019-05-17T23:56:47.398Z,1.00
2019-05-17T23:59:17.791Z,1.00
